Terminal Aerodrome Forecast
Issued by NWS

Home | Current Version | Previous Version | Text Only | Print | Product List | Glossary On
Versions: 1 2 3 4 5 6 7 8 9 10 11 12 13 14 15 16 17 18
000
FTUS41 KALY 201130
TAFPSF
TAF
KPSF 201130Z 2012/2112 27007KT P6SM FEW250
     FM201400 30010G18KT P6SM SKC
     FM210000 30006KT P6SM SKC
     FM210400 VRB03KT P6SM SKC
     FM210800 00000KT 6SM BR MIFG FEW002=

USA.gov is the U.S. government's official web portal to all federal, state and local government web resources and services.